Current Weather

Grissom Afb Airport

Grissom Afb Airport, Indiana (KGUS)

Report from: Thursday, May 19, 2022 2:56 PM EDT
Current time: Thursday, May 19, 2022 3:40 PM EDT

Nearby weather
Weather history
Weather forecast

Temperature26.0°C (78.8°F)
Dew point18.4°C (65.1°F)
Winds 14 kts (7.2 m/s, 16.1 mph) South-Southwest (200°)
Visibility10 mi. (16.1 km)
Clouds Few clouds 17,000 ft. (5,182 m)
Few clouds 20,000 ft. (6,096 m)
Altimeter29.69 in.Hg (1005 mB)
Relative humidity63 %
Density altitude1,824 ft. (556 m)
Sea-level pressure100.5 kPa (1005 mB, 29.69 in.Hg)
Remarks Fully automated report
System requires maintenance
Automated weather observing station with precipitation discriminator
Flight conditions Visual Meteorological Conditions
Raw dataKGUS 191856Z AUTO 20014KT 10SM FEW170 FEW200 26/18 A2969 RMK AO2 SLP053 T02600184 $
An error has occurred. This application may no longer respond until reloaded. Reload 🗙